Time;durP1;ratioP1;P1;durP2;ratioP2;P2;SDS_P1;SDS_P2;PMS_P1;PMS_P2;Temp;Humidity;BMP_temperature;BMP_pressure;BME280_temperature;BME280_humidity;BME280_pressure;Samples;Min_cycle;Max_cycle;Signal;HPM_P1;HPM_P2
2022/04/21 00:02:18;;;;;;;4.80;3.60;;;;;;;;;;5016374;28;20236;-84
2022/04/21 00:04:44;;;;;;;3.70;3.37;;;5.70;99.90;;;;;;5017078;28;20279;-83
2022/04/21 00:07:09;;;;;;;9.27;3.93;;;5.70;99.90;;;;;;5016867;28;20660;-83
2022/04/21 00:09:35;;;;;;;6.80;4.30;;;;;;;;;;4999326;28;20181;-83
2022/04/21 00:12:01;;;;;;;6.47;4.30;;;5.70;99.90;;;;;;5016730;28;20189;-83
2022/04/21 00:14:27;;;;;;;4.13;2.93;;;;;;;;;;4999157;28;20183;-84
2022/04/21 00:16:54;;;;;;;9.10;3.77;;;5.70;99.90;;;;;;4999894;28;20192;-83
2022/04/21 00:19:20;;;;;;;11.47;5.60;;;5.70;99.90;;;;;;4999170;28;20554;-83
2022/04/21 00:24:30;;;;;;;3.23;2.93;;;5.70;99.90;;;;;;5016608;28;20553;-83
2022/04/21 00:26:55;;;;;;;5.80;3.37;;;5.70;99.90;;;;;;4999551;28;20264;-83
2022/04/21 00:29:21;;;;;;;13.73;3.80;;;5.70;99.90;;;;;;5016685;28;20637;-83
2022/04/21 00:31:47;;;;;;;4.30;2.63;;;5.70;99.90;;;;;;5012386;28;20199;-83
2022/04/21 00:34:13;;;;;;;5.87;3.93;;;5.70;99.90;;;;;;5024134;28;20180;-83
2022/04/21 00:36:39;;;;;;;4.23;3.57;;;5.60;99.90;;;;;;5023862;28;20173;-83
2022/04/21 00:39:04;;;;;;;3.23;2.93;;;5.70;99.90;;;;;;5024087;28;20184;-83
2022/04/21 00:41:30;;;;;;;6.73;4.37;;;5.70;99.90;;;;;;5040041;28;20195;-84
2022/04/21 00:43:56;;;;;;;6.53;5.00;;;5.80;99.90;;;;;;5015403;28;20665;-82
2022/04/21 00:46:22;;;;;;;7.50;4.30;;;5.60;99.90;;;;;;5023996;28;20514;-83
2022/04/21 00:48:49;;;;;;;4.73;4.30;;;5.60;99.90;;;;;;5026688;28;20188;-83
2022/04/21 00:51:15;;;;;;;4.13;3.73;;;5.60;99.90;;;;;;5010325;28;20179;-90
2022/04/21 00:53:42;;;;;;;4.77;4.27;;;5.60;99.90;;;;;;5009628;28;20272;-84
2022/04/21 00:56:09;;;;;;;4.20;3.40;;;5.60;99.90;;;;;;4998628;28;20272;-85
2022/04/21 00:58:37;;;;;;;7.43;3.73;;;5.60;99.90;;;;;;5015322;28;20185;-84
2022/04/21 01:01:03;;;;;;;14.17;3.50;;;5.60;99.90;;;;;;5016199;28;20185;-83
2022/04/21 01:03:29;;;;;;;7.80;3.70;;;5.60;99.90;;;;;;5015229;28;20213;-84
2022/04/21 01:05:55;;;;;;;5.27;3.10;;;5.80;99.90;;;;;;5015973;28;20185;-83
2022/04/21 01:08:21;;;;;;;4.90;3.70;;;5.70;99.90;;;;;;4998003;28;20187;-83
2022/04/21 01:10:47;;;;;;;9.57;3.53;;;;;;;;;;4997838;28;20181;-84
2022/04/21 01:13:13;;;;;;;6.37;4.10;;;5.30;99.90;;;;;;5015544;28;20181;-84
2022/04/21 01:15:40;;;;;;;5.27;3.77;;;5.60;99.90;;;;;;4997698;28;20192;-84
2022/04/21 01:18:07;;;;;;;11.00;5.70;;;5.60;99.90;;;;;;5015441;28;20188;-84
2022/04/21 01:20:33;;;;;;;8.00;4.97;;;5.70;99.90;;;;;;4997627;28;20181;-83
2022/04/21 01:22:59;;;;;;;4.30;2.43;;;;;;;;;;4997889;28;20205;-83
2022/04/21 01:25:25;;;;;;;7.37;4.10;;;;;;;;;;5014936;28;20525;-84
2022/04/21 01:28:00;;;;;;;5.27;4.33;;;5.60;99.90;;;;;;5015925;28;20239;-83
2022/04/21 01:30:25;;;;;;;11.83;4.43;;;5.60;99.90;;;;;;5015296;28;20183;-84
2022/04/21 01:32:51;;;;;;;3.30;3.03;;;5.60;99.90;;;;;;4997753;28;20189;-83
2022/04/21 01:35:17;;;;;;;5.90;4.53;;;5.60;99.90;;;;;;5015361;28;20282;-83
2022/04/21 01:43:11;;;;;;;5.97;4.23;;;5.60;99.90;;;;;;5000086;28;20585;-84
2022/04/21 01:45:37;;;;;;;4.73;3.40;;;5.60;99.90;;;;;;5014678;28;20181;-83
2022/04/21 01:48:04;;;;;;;6.27;3.87;;;5.60;99.90;;;;;;5014842;28;20177;-84
2022/04/21 01:50:30;;;;;;;8.10;2.83;;;5.60;99.90;;;;;;4996845;28;20177;-83
2022/04/21 01:52:58;;;;;;;6.07;3.63;;;5.60;99.90;;;;;;5014187;28;20274;-83
2022/04/21 01:55:24;;;;;;;4.97;3.50;;;5.60;99.90;;;;;;4980746;28;20236;-83
2022/04/21 01:57:49;;;;;;;4.60;2.87;;;5.60;99.90;;;;;;4997272;28;20667;-84
2022/04/21 02:00:15;;;;;;;12.13;3.30;;;5.60;99.90;;;;;;5014544;28;20274;-84
2022/04/21 02:02:41;;;;;;;6.53;3.57;;;5.60;99.90;;;;;;5014611;28;20248;-83
2022/04/21 02:05:07;;;;;;;5.77;3.90;;;5.60;99.90;;;;;;5014774;28;20188;-83
2022/04/21 02:07:33;;;;;;;6.60;3.60;;;5.70;99.90;;;;;;5014387;28;20185;-84
2022/04/21 02:09:58;;;;;;;7.70;4.00;;;5.70;99.90;;;;;;5014483;28;20186;-83
2022/04/21 02:12:24;;;;;;;3.83;3.37;;;5.70;99.90;;;;;;4996862;28;20224;-88
2022/04/21 02:14:51;;;;;;;6.50;3.83;;;5.70;99.90;;;;;;5014274;28;20240;-83
2022/04/21 02:17:18;;;;;;;3.57;2.57;;;5.80;99.90;;;;;;5014374;28;20580;-84
2022/04/21 02:19:44;;;;;;;3.17;2.63;;;5.80;99.90;;;;;;4996886;28;20481;-83
2022/04/21 02:22:10;;;;;;;4.83;3.67;;;5.70;99.90;;;;;;5014155;28;20209;-83
2022/04/21 02:24:36;;;;;;;5.03;3.30;;;5.70;99.90;;;;;;5013760;28;20514;-84
2022/04/21 02:27:01;;;;;;;3.23;2.60;;;5.70;99.90;;;;;;4980459;28;20708;-84
2022/04/21 02:29:27;;;;;;;2.77;2.37;;;5.70;99.90;;;;;;4979994;28;20192;-85
2022/04/21 02:31:52;;;;;;;5.03;3.03;;;5.80;99.90;;;;;;5014163;28;20188;-84
2022/04/21 02:34:18;;;;;;;2.63;2.50;;;5.80;99.90;;;;;;5013840;28;20625;-84
2022/04/21 02:36:44;;;;;;;3.57;3.27;;;5.80;99.90;;;;;;5013527;28;20185;-84
2022/04/21 02:39:10;;;;;;;6.77;4.43;;;;;;;;;;5013779;28;20315;-84
2022/04/21 02:41:35;;;;;;;2.57;1.97;;;5.70;99.90;;;;;;4996156;28;20181;-85
2022/04/21 02:44:01;;;;;;;4.87;3.53;;;5.70;99.90;;;;;;5013980;28;20220;-84
2022/04/21 02:46:32;;;;;;;2.33;2.13;;;5.80;99.90;;;;;;5013737;28;20177;-84
2022/04/21 02:49:01;;;;;;;3.27;2.93;;;5.80;99.90;;;;;;5013587;28;20185;-84
2022/04/21 02:51:28;;;;;;;5.77;3.40;;;5.70;99.90;;;;;;5013832;28;20622;-83
2022/04/21 02:59:23;;;;;;;7.57;5.00;;;5.80;99.90;;;;;;5013853;28;20231;-84
2022/04/21 03:01:48;;;;;;;4.70;3.97;;;5.50;99.90;;;;;;4995976;28;20679;-84
2022/04/21 03:04:14;;;;;;;5.33;3.27;;;5.90;99.90;;;;;;5013696;28;20193;-84
2022/04/21 03:06:40;;;;;;;3.43;2.57;;;5.70;99.90;;;;;;4995693;28;20634;-84
2022/04/21 03:09:05;;;;;;;5.23;3.70;;;5.70;99.90;;;;;;4996016;28;20212;-84
2022/04/21 03:11:31;;;;;;;3.33;3.03;;;5.70;99.90;;;;;;5013459;28;20180;-85
2022/04/21 03:13:56;;;;;;;7.77;4.90;;;5.70;99.90;;;;;;5013394;28;20527;-84
2022/04/21 03:16:22;;;;;;;5.17;2.30;;;5.70;99.90;;;;;;5013609;28;20181;-84
2022/04/21 03:18:48;;;;;;;4.77;3.70;;;5.70;99.90;;;;;;4995860;28;20187;-83
2022/04/21 03:26:41;;;;;;;3.73;2.83;;;5.70;99.90;;;;;;5013394;28;20192;-85
2022/04/21 03:29:07;;;;;;;6.53;3.30;;;5.70;99.90;;;;;;4997375;28;20177;-84
2022/04/21 03:31:32;;;;;;;5.70;3.57;;;5.70;99.90;;;;;;4995808;28;20535;-88
2022/04/21 03:33:58;;;;;;;8.23;3.77;;;5.70;99.90;;;;;;5007827;28;20193;-85
2022/04/21 03:36:23;;;;;;;4.27;3.57;;;5.40;99.90;;;;;;4997292;28;20181;-86
2022/04/21 03:38:49;;;;;;;5.57;2.57;;;5.60;99.90;;;;;;4991415;28;20189;-84
2022/04/21 03:41:15;;;;;;;6.20;2.90;;;5.60;99.90;;;;;;5019025;28;20208;-83
2022/04/21 03:43:40;;;;;;;2.90;2.70;;;5.60;99.90;;;;;;5018751;28;20219;-85
2022/04/21 03:46:06;;;;;;;9.13;3.40;;;5.50;99.90;;;;;;4981936;28;20578;-83
2022/04/21 03:48:32;;;;;;;3.77;2.47;;;5.60;99.90;;;;;;5013052;28;20185;-84
2022/04/21 03:50:58;;;;;;;3.03;2.73;;;;;;;;;;5002315;28;20189;-83
2022/04/21 03:53:24;;;;;;;4.80;3.07;;;5.60;99.90;;;;;;4989982;28;20190;-84
2022/04/21 03:55:49;;;;;;;2.93;2.43;;;6.20;99.90;;;;;;5003197;28;20710;-84
2022/04/21 03:58:15;;;;;;;4.27;2.83;;;5.50;99.90;;;;;;5019063;28;20243;-84
2022/04/21 04:00:41;;;;;;;3.73;2.63;;;5.60;99.90;;;;;;5017438;28;20561;-84
2022/04/21 04:03:07;;;;;;;4.27;2.30;;;;;;;;;;5011934;28;20245;-85
2022/04/21 04:05:33;;;;;;;2.47;2.27;;;5.80;99.90;;;;;;5014554;28;20197;-85
2022/04/21 04:10:52;;;;;;;4.27;2.97;;;5.60;99.90;;;;;;5020712;28;20223;-84
2022/04/21 04:13:24;;;;;;;2.87;2.10;;;5.60;99.90;;;;;;4987428;28;20659;-83
2022/04/21 04:15:51;;;;;;;3.13;2.83;;;5.20;99.90;;;;;;4988816;28;20202;-84
2022/04/21 04:18:19;;;;;;;8.17;3.43;;;5.40;99.90;;;;;;5020272;28;20178;-83
2022/04/21 04:20:46;;;;;;;3.37;2.20;;;;;;;;;;5021265;28;20177;-83
2022/04/21 04:23:17;;;;;;;3.43;3.00;;;5.20;99.90;;;;;;5004513;28;20304;-84
2022/04/21 04:25:43;;;;;;;2.97;2.67;;;5.60;99.90;;;;;;5021577;28;20193;-84
2022/04/21 04:28:09;;;;;;;7.57;2.83;;;;;;;;;;4988370;28;20192;-85
2022/04/21 04:30:38;;;;;;;2.97;2.23;;;5.20;99.90;;;;;;4993296;28;20224;-85
2022/04/21 04:33:04;;;;;;;6.90;2.70;;;5.70;99.90;;;;;;5001266;28;20185;-86
2022/04/21 04:35:31;;;;;;;2.13;1.93;;;5.50;99.90;;;;;;5006057;28;20216;-83
2022/04/21 04:37:57;;;;;;;2.47;2.27;;;;;;;;;;4981931;28;20601;-84
2022/04/21 04:40:24;;;;;;;3.40;2.87;;;5.90;99.90;;;;;;4988455;28;20185;-86
2022/04/21 04:42:50;;;;;;;8.60;5.50;;;;;;;;;;4992737;28;20742;-85
2022/04/21 04:48:00;;;;;;;5.20;4.20;;;5.70;99.90;;;;;;4992630;28;20196;-84
2022/04/21 04:50:25;;;;;;;3.13;2.07;;;5.70;99.90;;;;;;5010004;28;20189;-84
2022/04/21 04:52:57;;;;;;;3.00;2.17;;;5.60;99.90;;;;;;4975795;28;20700;-86
2022/04/21 04:55:23;;;;;;;3.27;2.97;;;5.70;99.90;;;;;;5016392;28;20232;-83
2022/04/21 04:57:50;;;;;;;6.97;4.10;;;5.70;99.90;;;;;;4983655;28;20330;-82
2022/04/21 05:00:16;;;;;;;3.03;2.30;;;5.70;99.90;;;;;;5017304;28;20173;-83
2022/04/21 05:02:41;;;;;;;4.60;3.07;;;5.70;99.90;;;;;;4999684;28;20213;-83
2022/04/21 05:05:08;;;;;;;5.43;3.23;;;5.70;99.90;;;;;;4999042;28;20185;-82
2022/04/21 05:07:35;;;;;;;3.63;2.57;;;6.00;99.90;;;;;;5018149;28;20181;-84
2022/04/21 05:10:01;;;;;;;6.37;4.10;;;5.50;99.90;;;;;;5000164;28;20272;-83
2022/04/21 05:12:27;;;;;;;5.97;2.90;;;;;;;;;;5016269;28;20182;-83
2022/04/21 05:14:52;;;;;;;6.57;3.13;;;5.80;99.90;;;;;;4982428;28;20275;-83
2022/04/21 05:17:18;;;;;;;3.00;2.63;;;5.80;99.90;;;;;;4984639;28;20215;-84
2022/04/21 05:19:45;;;;;;;2.60;2.40;;;5.80;99.90;;;;;;4997962;28;20181;-84
2022/04/21 05:22:13;;;;;;;3.17;2.87;;;5.80;99.90;;;;;;4998707;28;20201;-84
2022/04/21 05:24:39;;;;;;;5.87;2.70;;;;;;;;;;5000814;28;20181;-82
2022/04/21 05:27:05;;;;;;;1.50;1.40;;;5.80;99.90;;;;;;5002563;28;20184;-82
2022/04/21 05:32:22;;;;;;;4.37;2.33;;;5.80;99.90;;;;;;5016916;28;20254;-83
2022/04/21 05:34:48;;;;;;;3.87;2.97;;;;;;;;;;5016881;28;20177;-84
2022/04/21 05:37:14;;;;;;;1.43;1.40;;;5.90;99.90;;;;;;5017019;28;20173;-83
2022/04/21 05:39:40;;;;;;;2.40;1.77;;;5.90;99.90;;;;;;4999413;28;20546;-83
2022/04/21 05:42:06;;;;;;;3.93;2.63;;;5.90;99.90;;;;;;4998619;28;22055;-83
2022/04/21 05:44:32;;;;;;;2.43;2.23;;;5.90;99.90;;;;;;5016543;28;20197;-83
2022/04/21 05:46:58;;;;;;;3.50;2.33;;;5.90;99.90;;;;;;5016255;28;20177;-83
2022/04/21 05:49:24;;;;;;;2.43;2.13;;;6.10;99.90;;;;;;4998884;28;20208;-81
2022/04/21 05:51:54;;;;;;;4.17;2.07;;;6.00;99.90;;;;;;5015806;28;20626;-84
2022/04/21 05:54:20;;;;;;;1.90;1.67;;;6.00;99.90;;;;;;5015000;28;20646;-82
2022/04/21 05:56:46;;;;;;;5.73;2.70;;;6.00;99.90;;;;;;4996684;28;20208;-83
2022/04/21 05:59:11;;;;;;;1.80;1.70;;;6.00;99.90;;;;;;4996845;28;20189;-86
2022/04/21 06:01:37;;;;;;;2.53;2.33;;;5.70;99.90;;;;;;4996892;28;20263;-85
2022/04/21 06:04:03;;;;;;;2.43;1.70;;;6.00;99.90;;;;;;4996402;28;20221;-84
2022/04/21 06:06:28;;;;;;;1.90;1.80;;;6.20;99.90;;;;;;5014028;28;20646;-82
2022/04/21 06:08:54;;;;;;;7.37;4.03;;;6.20;99.90;;;;;;4997214;28;20184;-83
2022/04/21 06:11:19;;;;;;;3.53;2.50;;;6.10;99.90;;;;;;4997787;28;20519;-82
2022/04/21 06:13:45;;;;;;;2.43;2.23;;;6.20;99.90;;;;;;5014478;28;20259;-81
2022/04/21 06:16:11;;;;;;;2.33;2.13;;;6.20;99.90;;;;;;5014959;28;20646;-82
2022/04/21 06:18:37;;;;;;;2.63;1.47;;;6.30;99.90;;;;;;4997609;28;20209;-82
2022/04/21 06:21:03;;;;;;;2.97;2.23;;;;;;;;;;4997093;28;20188;-83
2022/04/21 06:23:32;;;;;;;2.40;2.20;;;6.30;99.90;;;;;;5014790;28;20224;-83
2022/04/21 06:25:59;;;;;;;2.10;1.93;;;6.30;99.90;;;;;;5014248;28;20184;-82
2022/04/21 06:28:25;;;;;;;1.80;1.33;;;6.40;99.90;;;;;;4997567;28;20682;-82
2022/04/21 06:30:51;;;;;;;1.63;1.53;;;6.40;99.90;;;;;;4997985;28;20185;-84
2022/04/21 06:33:18;;;;;;;1.90;1.70;;;6.40;99.90;;;;;;4998080;28;20268;-83
2022/04/21 06:35:46;;;;;;;2.30;1.90;;;6.40;99.90;;;;;;5015332;28;20173;-82
2022/04/21 06:38:13;;;;;;;1.43;1.33;;;6.50;99.90;;;;;;5013720;28;20207;-82
2022/04/21 06:40:39;;;;;;;2.03;1.50;;;6.50;99.90;;;;;;4996484;28;20243;-82
2022/04/21 06:48:35;;;;;;;1.67;1.57;;;6.70;99.90;;;;;;4997392;28;20255;-83
2022/04/21 06:51:01;;;;;;;2.67;2.47;;;6.60;99.90;;;;;;5010614;28;20185;-84
2022/04/21 06:53:26;;;;;;;2.77;1.97;;;6.70;99.90;;;;;;5010130;28;20203;-83
2022/04/21 06:55:52;;;;;;;3.57;2.07;;;6.70;99.90;;;;;;4994785;28;20719;-86
2022/04/21 06:58:17;;;;;;;1.03;1.03;;;6.80;99.90;;;;;;5010704;28;20191;-85
2022/04/21 07:00:43;;;;;;;4.07;1.50;;;6.80;99.90;;;;;;5013503;28;20181;-83
2022/04/21 07:03:09;;;;;;;2.43;2.13;;;6.80;99.90;;;;;;4995005;28;20213;-85
2022/04/21 07:05:35;;;;;;;4.53;2.63;;;6.80;99.90;;;;;;5013237;28;20189;-83
2022/04/21 07:08:01;;;;;;;3.30;1.63;;;6.90;99.90;;;;;;5012552;28;20177;-84
2022/04/21 07:10:27;;;;;;;3.23;2.27;;;6.90;99.90;;;;;;5015824;28;20661;-84
2022/04/21 07:12:52;;;;;;;3.03;2.77;;;6.90;99.90;;;;;;5024395;28;20188;-84
2022/04/21 07:15:18;;;;;;;2.43;2.20;;;6.90;99.90;;;;;;5008167;28;20188;-82
2022/04/21 07:17:44;;;;;;;2.67;2.17;;;7.00;99.90;;;;;;5024842;28;20653;-83
2022/04/21 07:20:12;;;;;;;2.70;1.97;;;7.00;99.90;;;;;;4997291;28;20624;-85
2022/04/21 07:22:38;;;;;;;3.87;2.97;;;7.00;99.90;;;;;;5012867;28;20201;-83
2022/04/21 07:25:06;;;;;;;4.00;2.60;;;7.10;99.90;;;;;;5012368;28;20177;-84
2022/04/21 07:27:32;;;;;;;3.60;2.70;;;7.10;99.90;;;;;;5013423;28;20178;-84
2022/04/21 07:29:58;;;;;;;2.70;2.10;;;7.10;99.90;;;;;;4995821;28;20538;-83
2022/04/21 07:32:24;;;;;;;3.10;2.73;;;7.10;99.90;;;;;;5013407;28;20185;-83
2022/04/21 07:34:50;;;;;;;2.63;1.77;;;7.10;99.90;;;;;;5013529;28;20185;-83
2022/04/21 07:37:15;;;;;;;2.73;2.17;;;7.20;99.90;;;;;;4995535;28;20214;-83
2022/04/21 07:39:42;;;;;;;2.53;2.33;;;7.30;99.90;;;;;;4995933;28;20668;-83
2022/04/21 07:42:09;;;;;;;2.70;2.30;;;7.30;99.90;;;;;;5013223;28;20196;-84
2022/04/21 07:44:36;;;;;;;3.60;2.70;;;7.40;99.90;;;;;;4997896;28;20184;-82
2022/04/21 07:47:03;;;;;;;3.90;2.87;;;7.40;99.90;;;;;;4995496;28;20188;-83
2022/04/21 07:49:46;;;;;;;7.50;3.37;;;7.50;99.90;;;;;;5013680;28;20181;-84
2022/04/21 07:55:18;;;;;;;3.00;2.03;;;7.60;99.90;;;;;;5016949;28;20243;-84
2022/04/21 07:57:46;;;;;;;3.67;2.13;;;7.60;99.90;;;;;;5017003;28;20184;-83
2022/04/21 08:00:14;;;;;;;3.03;2.20;;;7.70;99.90;;;;;;4999225;28;20185;-83
2022/04/21 08:02:41;;;;;;;3.50;2.00;;;7.70;99.90;;;;;;5016791;28;20208;-84
2022/04/21 08:05:08;;;;;;;4.20;2.87;;;8.20;99.90;;;;;;4998954;28;20196;-84
2022/04/21 08:07:37;;;;;;;3.67;2.43;;;7.60;99.90;;;;;;4999426;28;20200;-84
2022/04/21 08:10:04;;;;;;;3.27;2.70;;;7.90;99.90;;;;;;4998728;28;20559;-84
2022/04/21 08:12:39;;;;;;;7.03;3.23;;;7.90;99.90;;;;;;5016930;28;20213;-84
2022/04/21 08:15:07;;;;;;;3.07;2.77;;;8.00;99.90;;;;;;5017018;28;20177;-84
2022/04/21 08:17:33;;;;;;;3.77;2.53;;;8.10;99.90;;;;;;5017079;28;20181;-83
2022/04/21 08:19:59;;;;;;;2.37;2.00;;;8.10;99.90;;;;;;5020061;28;20199;-85
2022/04/21 08:22:24;;;;;;;3.07;2.13;;;8.10;99.90;;;;;;5004778;28;20267;-83
2022/04/21 08:33:03;;;;;;;6.37;4.07;;;;;;;;;;5018048;28;20196;-83
2022/04/21 08:35:28;;;;;;;2.47;2.27;;;8.30;99.90;;;;;;5001638;28;20231;-84
2022/04/21 08:37:54;;;;;;;2.97;2.27;;;8.40;99.90;;;;;;5020184;28;20185;-84
2022/04/21 08:40:22;;;;;;;2.37;2.17;;;8.40;99.90;;;;;;5018773;28;20196;-84
2022/04/21 08:42:52;;;;;;;2.90;2.43;;;8.50;99.90;;;;;;5000344;28;20259;-86
2022/04/21 08:45:18;;;;;;;3.67;2.80;;;8.50;99.90;;;;;;4984263;28;20193;-85
2022/04/21 08:47:48;;;;;;;3.37;2.93;;;8.60;99.90;;;;;;5018696;28;20178;-84
2022/04/21 08:50:16;;;;;;;2.87;2.40;;;8.70;99.90;;;;;;5017930;28;20185;-85
2022/04/21 08:52:43;;;;;;;4.37;2.83;;;8.70;99.90;;;;;;5018833;28;20184;-85
2022/04/21 08:55:10;;;;;;;7.53;4.13;;;8.70;99.90;;;;;;5001284;28;20332;-84
2022/04/21 08:57:36;;;;;;;4.20;3.13;;;;;;;;;;4985119;28;20696;-85
2022/04/21 09:00:07;;;;;;;7.67;3.87;;;8.70;99.90;;;;;;5001144;28;20185;-85
2022/04/21 09:02:45;;;;;;;4.40;3.00;;;8.70;99.90;;;;;;4999414;28;20228;-84
2022/04/21 09:05:11;;;;;;;4.10;3.00;;;8.70;99.90;;;;;;5018656;28;20185;-85
2022/04/21 09:07:44;;;;;;;6.27;3.27;;;8.80;99.90;;;;;;5018234;28;20209;-86
2022/04/21 09:10:12;;;;;;;4.03;2.60;;;8.80;99.90;;;;;;4997790;28;20255;-84
2022/04/21 09:12:44;;;;;;;5.80;3.17;;;8.70;99.90;;;;;;5015603;28;20185;-84
2022/04/21 09:15:17;;;;;;;3.57;2.70;;;8.70;99.90;;;;;;5015253;28;20177;-85
2022/04/21 09:17:49;;;;;;;4.77;2.33;;;8.80;99.90;;;;;;4997864;28;20192;-84
2022/04/21 09:20:18;;;;;;;5.57;3.73;;;8.90;99.90;;;;;;5015101;28;20260;-85
2022/04/21 09:22:58;;;;;;;4.13;3.00;;;8.90;99.90;;;;;;5015250;28;20205;-86
2022/04/21 09:25:27;;;;;;;3.17;2.53;;;9.00;99.90;;;;;;5015660;28;20201;-85
2022/04/21 09:27:54;;;;;;;2.73;1.97;;;8.90;99.90;;;;;;5016279;28;20177;-86
2022/04/21 09:30:20;;;;;;;1.93;1.83;;;8.90;99.90;;;;;;5016153;28;20177;-83
2022/04/21 09:32:55;;;;;;;4.20;3.13;;;9.00;99.90;;;;;;5016066;28;20644;-82
2022/04/21 09:35:23;;;;;;;3.67;3.00;;;8.90;99.90;;;;;;4998571;28;20566;-84
2022/04/21 09:37:52;;;;;;;3.27;2.13;;;8.80;99.90;;;;;;5026448;28;20289;-88
2022/04/21 09:40:19;;;;;;;2.27;2.07;;;8.80;99.90;;;;;;5021157;28;20168;-83
2022/04/21 09:42:59;;;;;;;3.40;2.80;;;8.80;99.90;;;;;;5038858;28;20192;-84
2022/04/21 09:48:26;;;;;;;6.57;2.50;;;8.80;99.90;;;;;;5036237;28;20164;-84
2022/04/21 09:50:56;;;;;;;3.00;2.70;;;8.80;99.90;;;;;;5009868;28;20181;-85
2022/04/21 09:53:23;;;;;;;4.50;3.33;;;8.80;99.90;;;;;;5014232;28;20657;-83
2022/04/21 09:56:07;;;;;;;4.97;3.50;;;8.80;99.90;;;;;;5014678;28;20240;-83
2022/04/21 09:58:38;;;;;;;6.07;3.63;;;8.70;99.90;;;;;;5015060;28;20176;-84
2022/04/21 10:01:04;;;;;;;5.47;4.03;;;8.80;99.90;;;;;;5014783;28;20636;-84
2022/04/21 10:03:33;;;;;;;5.07;2.80;;;8.80;99.90;;;;;;5014201;28;20201;-83
2022/04/21 10:05:59;;;;;;;2.57;1.83;;;8.80;99.90;;;;;;4997328;28;20185;-82
2022/04/21 10:08:25;;;;;;;5.03;3.60;;;8.90;99.90;;;;;;5014896;28;20704;-86
2022/04/21 10:10:53;;;;;;;3.70;2.83;;;8.90;99.90;;;;;;4980686;28;20217;-84
2022/04/21 10:13:19;;;;;;;3.17;2.63;;;8.90;99.90;;;;;;4979390;28;20546;-84
2022/04/21 10:15:45;;;;;;;5.37;3.20;;;8.90;99.90;;;;;;4980338;28;20186;-83
2022/04/21 10:18:16;;;;;;;3.17;2.60;;;8.90;99.90;;;;;;4980419;28;20696;-84
2022/04/21 10:20:44;;;;;;;4.07;2.90;;;8.90;99.90;;;;;;4997298;28;20192;-83
2022/04/21 10:23:15;;;;;;;2.83;2.60;;;8.90;99.90;;;;;;5014563;28;20240;-84
2022/04/21 10:25:42;;;;;;;4.20;2.50;;;8.60;99.90;;;;;;4997155;28;20185;-86
2022/04/21 10:28:30;;;;;;;2.93;2.60;;;8.90;99.90;;;;;;5014066;28;20200;-85
2022/04/21 10:30:57;;;;;;;5.10;3.33;;;8.90;99.90;;;;;;5013714;28;20179;-86
2022/04/21 10:33:52;;;;;;;5.70;3.60;;;8.80;99.90;;;;;;4996373;28;20225;-85
2022/04/21 10:36:33;;;;;;;5.70;3.60;;;8.80;99.90;;;;;;5013668;28;20173;-85
2022/04/21 10:39:16;;;;;;;4.43;3.23;;;8.80;99.90;;;;;;4993766;28;20263;-85
2022/04/21 10:41:43;;;;;;;3.63;2.83;;;8.80;99.90;;;;;;4996053;28;20187;-85
2022/04/21 10:44:15;;;;;;;5.73;3.40;;;8.70;99.90;;;;;;5013468;28;20208;-85
2022/04/21 10:46:42;;;;;;;4.60;3.43;;;8.80;99.90;;;;;;4996298;28;20181;-85
2022/04/21 10:49:09;;;;;;;3.93;2.93;;;8.80;99.90;;;;;;4995893;28;20228;-85
2022/04/21 10:57:16;;;;;;;3.57;2.67;;;8.80;99.90;;;;;;4997576;28;20208;-87
2022/04/21 11:00:05;;;;;;;3.73;3.00;;;8.70;99.90;;;;;;5012357;28;20193;-83
2022/04/21 11:02:44;;;;;;;3.37;2.70;;;8.70;99.90;;;;;;5013914;28;20228;-87
2022/04/21 11:05:22;;;;;;;3.07;2.67;;;8.70;99.90;;;;;;5014196;28;20239;-83
2022/04/21 11:07:51;;;;;;;4.00;3.57;;;8.70;99.90;;;;;;4996075;28;20223;-83
2022/04/21 11:10:41;;;;;;;4.30;3.33;;;8.70;99.90;;;;;;5013277;28;20173;-84
2022/04/21 11:13:17;;;;;;;4.87;3.90;;;8.70;99.90;;;;;;4996243;28;20185;-83
2022/04/21 11:15:53;;;;;;;4.80;3.57;;;8.80;99.90;;;;;;5012897;28;20185;-84
2022/04/21 11:18:20;;;;;;;2.80;2.43;;;8.80;99.90;;;;;;5013310;28;20641;-84
2022/04/21 11:20:51;;;;;;;4.77;3.17;;;8.90;99.90;;;;;;4996002;28;20177;-84
2022/04/21 11:23:31;;;;;;;6.03;3.53;;;8.90;99.90;;;;;;4995821;28;20733;-86
2022/04/21 11:26:15;;;;;;;9.30;4.57;;;9.00;99.90;;;;;;5017699;28;20195;-85
2022/04/21 11:28:45;;;;;;;3.47;3.07;;;8.90;99.90;;;;;;5018433;28;20315;-84
2022/04/21 11:31:12;;;;;;;6.47;3.13;;;8.90;99.90;;;;;;5002115;28;20181;-85
2022/04/21 11:33:39;;;;;;;4.60;2.90;;;9.00;99.90;;;;;;4986379;28;20216;-84
2022/04/21 11:36:11;;;;;;;3.83;3.43;;;9.00;99.90;;;;;;5002433;28;20181;-85
2022/04/21 11:38:42;;;;;;;5.20;3.30;;;9.00;99.90;;;;;;5002367;28;20181;-84
2022/04/21 11:41:09;;;;;;;2.70;2.40;;;8.90;99.90;;;;;;5002920;28;20181;-84
2022/04/21 11:43:36;;;;;;;5.70;4.07;;;8.90;99.90;;;;;;5029601;28;20661;-84
2022/04/21 11:46:06;;;;;;;5.00;3.50;;;9.00;99.90;;;;;;5020563;28;20185;-84
2022/04/21 11:48:38;;;;;;;4.47;3.73;;;8.90;99.90;;;;;;5003744;28;20176;-85
2022/04/21 11:51:27;;;;;;;4.13;3.13;;;8.90;99.90;;;;;;4999136;28;20185;-84
2022/04/21 11:53:55;;;;;;;5.00;3.87;;;8.90;99.90;;;;;;5019559;28;20254;-84
2022/04/21 11:56:21;;;;;;;5.13;3.80;;;8.90;99.90;;;;;;4998676;28;20327;-86
2022/04/21 11:58:47;;;;;;;7.67;4.20;;;8.90;99.90;;;;;;5000281;28;20521;-89
2022/04/21 12:06:49;;;;;;;4.47;2.93;;;8.80;99.90;;;;;;4999095;28;20196;-82
2022/04/21 12:09:17;;;;;;;3.73;2.57;;;8.90;99.90;;;;;;5002540;28;20181;-85
2022/04/21 12:11:51;;;;;;;5.73;4.30;;;9.00;99.90;;;;;;5015849;28;20182;-84
2022/04/21 12:14:17;;;;;;;5.57;4.50;;;9.00;99.90;;;;;;5013490;28;20265;-84
2022/04/21 12:16:45;;;;;;;4.93;4.10;;;9.00;99.90;;;;;;5012814;28;20206;-84
2022/04/21 12:19:39;;;;;;;3.90;3.07;;;9.00;99.90;;;;;;5012291;28;20313;-86
2022/04/21 12:22:07;;;;;;;4.37;2.53;;;9.00;99.90;;;;;;4994608;28;20181;-85
2022/04/21 12:24:34;;;;;;;4.67;3.23;;;9.00;99.90;;;;;;4996929;28;20192;-84
2022/04/21 12:27:03;;;;;;;3.30;2.80;;;9.00;99.90;;;;;;4998279;28;20181;-84
2022/04/21 12:29:31;;;;;;;3.07;2.77;;;8.80;99.90;;;;;;4997735;28;20181;-85
2022/04/21 12:32:02;;;;;;;5.00;3.90;;;9.00;99.90;;;;;;4981718;28;20673;-88
2022/04/21 12:34:38;;;;;;;7.53;3.57;;;9.00;99.90;;;;;;4998920;28;20178;-84
2022/04/21 12:37:05;;;;;;;4.87;3.50;;;8.80;99.90;;;;;;4996353;28;20165;-88
2022/04/21 12:39:32;;;;;;;5.27;3.57;;;8.80;99.90;;;;;;4987156;28;20535;-85
2022/04/21 12:41:58;;;;;;;5.23;3.70;;;;;;;;;;4987524;28;20182;-85
2022/04/21 12:44:25;;;;;;;3.03;2.47;;;8.70;99.90;;;;;;4978689;28;20212;-85
2022/04/21 12:47:05;;;;;;;4.80;3.60;;;8.60;99.90;;;;;;4994294;28;20229;-84
2022/04/21 12:49:49;;;;;;;3.97;2.90;;;8.60;99.90;;;;;;4994859;28;20220;-85
2022/04/21 12:52:26;;;;;;;3.43;2.67;;;8.60;99.90;;;;;;4995286;28;20197;-86
2022/04/21 12:54:51;;;;;;;4.23;3.07;;;8.70;99.90;;;;;;5002525;28;20228;-85
2022/04/21 12:57:17;;;;;;;7.80;5.07;;;8.70;99.90;;;;;;5016097;28;20721;-84
2022/04/21 12:59:44;;;;;;;7.20;4.53;;;8.70;99.90;;;;;;5023516;28;20270;-85
2022/04/21 13:02:10;;;;;;;8.23;5.23;;;8.80;99.90;;;;;;4998893;28;20185;-85
2022/04/21 13:04:36;;;;;;;6.87;4.53;;;8.80;99.90;;;;;;5015687;28;20185;-84
2022/04/21 13:07:03;;;;;;;3.17;2.30;;;8.80;99.90;;;;;;4982099;28;20664;-84
2022/04/21 13:09:29;;;;;;;2.90;1.83;;;8.80;99.90;;;;;;4997520;28;20181;-85
2022/04/21 13:11:54;;;;;;;2.67;2.37;;;8.80;99.90;;;;;;4997097;28;20204;-84
2022/04/21 13:14:20;;;;;;;3.83;2.83;;;8.80;99.90;;;;;;5015276;28;20189;-84
2022/04/21 13:16:46;;;;;;;2.30;2.10;;;8.80;99.90;;;;;;4980971;28;20185;-86
2022/04/21 13:19:11;;;;;;;7.30;4.57;;;8.90;99.90;;;;;;5015701;28;20243;-84
2022/04/21 13:21:52;;;;;;;4.03;3.30;;;8.90;99.90;;;;;;5015834;28;20200;-84
2022/04/21 13:24:21;;;;;;;7.27;4.03;;;9.00;99.90;;;;;;5000253;28;20201;-83
2022/04/21 13:26:47;;;;;;;4.27;2.70;;;8.90;99.90;;;;;;4997802;28;20653;-84
2022/04/21 13:29:13;;;;;;;2.73;2.23;;;8.90;99.90;;;;;;4997023;28;20185;-85
2022/04/21 13:34:23;;;;;;;6.33;3.53;;;9.00;99.90;;;;;;5011352;28;20255;-85
2022/04/21 13:36:48;;;;;;;3.70;2.93;;;9.00;99.90;;;;;;4997094;28;20193;-84
2022/04/21 13:39:15;;;;;;;4.90;3.53;;;9.00;99.90;;;;;;4996874;28;20629;-86
2022/04/21 13:41:41;;;;;;;3.13;2.83;;;9.00;99.90;;;;;;4980726;28;20529;-85
2022/04/21 13:44:08;;;;;;;6.47;3.57;;;9.00;99.90;;;;;;4997035;28;20314;-85
2022/04/21 13:46:36;;;;;;;3.67;2.50;;;9.00;99.90;;;;;;4980210;28;20193;-85
2022/04/21 13:49:03;;;;;;;4.70;3.37;;;9.00;99.90;;;;;;4995481;28;20635;-85
2022/04/21 13:51:29;;;;;;;5.50;3.60;;;9.10;99.90;;;;;;4995578;28;20182;-85
2022/04/21 13:53:55;;;;;;;9.07;5.37;;;9.10;99.90;;;;;;4995610;28;20196;-84
2022/04/21 13:56:25;;;;;;;5.53;3.37;;;9.10;99.90;;;;;;4995714;28;20326;-84
2022/04/21 13:58:51;;;;;;;6.97;3.97;;;9.20;99.90;;;;;;5012888;28;20181;-83
2022/04/21 14:01:17;;;;;;;5.27;3.50;;;9.10;99.90;;;;;;4995646;28;20551;-84
2022/04/21 14:03:44;;;;;;;4.33;2.73;;;9.10;99.90;;;;;;4995006;28;20327;-83
2022/04/21 14:06:11;;;;;;;3.80;3.40;;;9.00;99.90;;;;;;5013023;28;20177;-84
2022/04/21 14:08:38;;;;;;;4.50;3.23;;;9.00;99.90;;;;;;5012852;28;20270;-85